SA-0001 weather

Al Bir Highway Strip
The Northern Border Region, Saudi Arabia

Public forecast

Using degrees Celsius for public forecast. Weather courtesy of forecast.io.

METAR (pilot weather report)

Closest report is Tabuk Airport, 39.6 nm (73.3 km) SE. Retrieved 2019/07/22 11:00 UTC (29 minutes ago):

OETB 221100Z 10008KT CAVOK 37/07 Q1007 NOSIG

TAF (pilot weather forecast)

Forecast is more than 12 hours old.

Closest forecast is Tabuk Airport, 39.6 nm (73.3 km) SE. Retrieved 2019/07/21 00:12 UTC (1 day ago):

TAF TAF OETB 212300Z 2200/2306 36010KT CAVOK BECMG 2208/2210 18008KT BECMG 2212/2214 25008KT